Time;durP1;ratioP1;P1;durP2;ratioP2;P2;SDS_P1;SDS_P2;PMS_P1;PMS_P2;Temp;Humidity;BMP_temperature;BMP_pressure;BME280_temperature;BME280_humidity;BME280_pressure;Samples;Min_cycle;Max_cycle;Signal;HPM_P1;HPM_P2
2022/01/04 00:01:16;;;;;;;6.10;4.90;;;;;;;9.57;95.01;99368.44;5092422;28;20929;-75
2022/01/04 00:03:43;;;;;;;4.13;3.93;;;;;;;9.54;95.64;99370.25;5092937;28;20694;-75
2022/01/04 00:06:10;;;;;;;5.23;4.73;;;;;;;9.47;95.80;99372.97;5092819;28;20218;-74
2022/01/04 00:08:39;;;;;;;5.17;4.87;;;;;;;9.35;95.99;99360.50;5092864;28;20206;-75
2022/01/04 00:11:15;;;;;;;5.07;4.70;;;;;;;9.30;96.67;99364.91;5092005;28;20199;-74
2022/01/04 00:13:42;;;;;;;6.70;4.63;;;;;;;9.16;96.73;99341.38;5092746;28;20210;-74
2022/01/04 00:16:10;;;;;;;5.80;5.33;;;;;;;9.14;97.83;99353.38;5092493;28;20289;-74
2022/01/04 00:18:38;;;;;;;6.27;5.47;;;;;;;9.02;98.07;99358.78;5092542;28;20655;-74
2022/01/04 00:21:05;;;;;;;5.37;4.97;;;;;;;8.95;98.39;99347.00;5092921;28;20270;-74
2022/01/04 00:23:32;;;;;;;4.53;4.23;;;;;;;8.90;98.46;99353.97;5090131;28;20200;-74
2022/01/04 00:26:01;;;;;;;5.80;5.40;;;;;;;8.78;99.43;99349.16;5091730;28;20203;-74
2022/01/04 00:28:28;;;;;;;5.87;5.47;;;;;;;8.81;98.84;99338.88;5091217;28;20621;-74
2022/01/04 00:30:55;;;;;;;5.17;4.87;;;;;;;8.78;98.80;99339.78;5092305;28;20195;-74
2022/01/04 00:33:22;;;;;;;5.03;4.63;;;;;;;8.76;98.27;99330.44;5092127;28;20227;-74
2022/01/04 00:35:50;;;;;;;4.77;4.37;;;;;;;8.82;98.86;99335.44;5092635;28;20532;-74
2022/01/04 00:38:17;;;;;;;5.37;4.97;;;;;;;8.79;98.69;99341.44;5091541;28;20195;-74
2022/01/04 00:40:44;;;;;;;5.07;4.67;;;;;;;8.81;98.24;99343.97;5092647;28;20696;-74
2022/01/04 00:43:13;;;;;;;5.57;5.03;;;;;;;8.79;98.16;99345.72;5092038;28;20196;-74
2022/01/04 00:45:40;;;;;;;5.03;4.73;;;;;;;8.67;98.61;99336.63;5092118;28;20199;-74
2022/01/04 00:50:53;;;;;;;5.73;5.40;;;;;;;8.59;99.20;99342.81;5092183;28;20199;-74
2022/01/04 00:53:21;;;;;;;5.30;4.67;;;;;;;8.51;99.40;99335.31;5091592;28;20215;-74
2022/01/04 00:55:48;;;;;;;6.13;4.80;;;;;;;8.49;99.92;99341.31;5092141;28;20210;-75
2022/01/04 00:58:16;;;;;;;5.50;5.10;;;;;;;8.46;100.00;99346.50;5091329;28;20202;-74
2022/01/04 01:00:43;;;;;;;5.37;4.97;;;;;;;8.42;99.79;99345.72;5092170;28;20230;-74
2022/01/04 01:03:10;;;;;;;5.60;5.20;;;;;;;8.38;100.00;99349.22;5090192;28;20603;-74
2022/01/04 01:05:38;;;;;;;5.20;4.80;;;;;;;8.36;100.00;99345.88;5090677;28;20199;-74
2022/01/04 01:08:05;;;;;;;6.27;5.77;;;;;;;8.34;100.00;99348.44;5091594;28;20252;-74
2022/01/04 01:10:45;;;;;;;7.00;5.47;;;;;;;8.30;100.00;99341.72;5088908;28;20679;-74
2022/01/04 01:13:13;;;;;;;5.10;4.80;;;;;;;8.22;100.00;99338.47;5091330;28;20717;-74
2022/01/04 01:15:44;;;;;;;6.07;5.60;;;;;;;8.09;100.00;99326.00;5092108;28;20218;-74
2022/01/04 01:18:12;;;;;;;5.83;5.43;;;;;;;8.13;100.00;99338.69;5091142;28;20211;-74
2022/01/04 01:20:38;;;;;;;5.00;4.70;;;;;;;8.17;100.00;99342.00;5088845;28;20659;-74
2022/01/04 01:23:06;;;;;;;10.03;6.17;;;;;;;8.25;100.00;99340.13;5089663;28;20195;-74
2022/01/04 01:25:33;;;;;;;5.93;5.43;;;;;;;8.27;100.00;99344.31;5089152;28;20207;-74
2022/01/04 01:28:00;;;;;;;5.37;4.97;;;;;;;8.21;100.00;99321.47;5091661;28;20202;-74
2022/01/04 01:30:28;;;;;;;5.83;5.17;;;;;;;8.32;100.00;99339.16;5090782;28;20195;-74
2022/01/04 01:32:57;;;;;;;5.83;5.30;;;;;;;8.34;100.00;99347.59;5091244;28;20230;-74
2022/01/04 01:35:24;;;;;;;5.40;5.00;;;;;;;8.28;100.00;99338.38;5090636;28;20203;-74
2022/01/04 01:37:50;;;;;;;5.03;4.57;;;;;;;8.31;100.00;99338.31;5091429;28;20199;-75
2022/01/04 01:40:17;;;;;;;5.37;4.80;;;;;;;8.34;99.72;99332.28;5090960;28;20199;-74
2022/01/04 01:42:45;;;;;;;5.73;5.23;;;;;;;8.33;99.83;99328.91;5090982;28;20195;-75
2022/01/04 01:45:16;;;;;;;6.10;5.10;;;;;;;8.36;99.87;99331.41;5090341;28;20192;-75
2022/01/04 01:47:43;;;;;;;5.13;4.13;;;;;;;8.38;99.44;99327.09;5088954;28;20210;-75
2022/01/04 01:50:13;;;;;;;6.80;4.57;;;;;;;8.36;99.65;99310.97;5089190;28;20211;-75
2022/01/04 01:52:41;;;;;;;4.97;4.57;;;;;;;8.44;99.47;99316.72;5089274;28;20211;-75
2022/01/04 01:55:10;;;;;;;4.77;4.37;;;;;;;8.47;99.67;99322.63;5089170;28;21493;-74
2022/01/04 01:57:37;;;;;;;4.67;4.37;;;;;;;8.47;99.18;99313.25;5088794;28;20192;-75
2022/01/04 02:00:07;;;;;;;7.30;4.87;;;;;;;8.26;99.81;99289.03;5088587;28;20199;-75
2022/01/04 02:02:34;;;;;;;4.63;4.33;;;;;;;8.36;99.29;99305.84;5088031;28;20838;-75
2022/01/04 02:05:00;;;;;;;6.10;4.73;;;;;;;8.37;99.95;99317.72;5090539;28;20199;-74
2022/01/04 02:07:30;;;;;;;5.47;4.93;;;;;;;8.36;99.86;99316.06;5090481;28;20221;-75
2022/01/04 02:10:03;;;;;;;5.47;5.00;;;;;;;8.38;99.63;99323.69;5088488;28;20544;-75
2022/01/04 02:12:31;;;;;;;8.60;5.30;;;;;;;8.37;99.79;99333.06;5088303;28;20215;-75
2022/01/04 02:14:58;;;;;;;7.17;6.03;;;;;;;8.36;99.78;99323.72;5088337;28;20760;-74
2022/01/04 02:17:25;;;;;;;6.50;5.90;;;;;;;8.31;100.00;99317.03;5087893;28;20210;-74
2022/01/04 02:19:55;;;;;;;5.27;4.93;;;;;;;8.30;100.00;99321.28;5087461;28;20200;-75
2022/01/04 02:22:22;;;;;;;6.03;5.53;;;;;;;8.29;100.00;99329.00;5086854;28;20199;-74
2022/01/04 02:24:50;;;;;;;6.40;5.90;;;;;;;8.22;100.00;99322.31;5090223;28;20210;-74
2022/01/04 02:27:17;;;;;;;6.77;4.97;;;;;;;8.15;99.66;99316.50;5090158;28;20192;-74
2022/01/04 02:29:45;;;;;;;5.87;5.37;;;;;;;8.14;100.00;99327.56;5090213;28;20214;-74
2022/01/04 02:32:12;;;;;;;5.33;4.93;;;;;;;7.96;100.00;99317.75;5089829;28;20217;-74
2022/01/04 02:34:40;;;;;;;4.83;4.43;;;;;;;7.93;100.00;99322.94;5090388;28;20734;-74
2022/01/04 02:37:09;;;;;;;5.47;5.07;;;;;;;7.89;100.00;99313.66;5089945;28;20256;-74
2022/01/04 02:39:37;;;;;;;4.40;3.97;;;;;;;7.84;100.00;99313.75;5090358;28;20195;-74
2022/01/04 02:42:05;;;;;;;6.07;5.33;;;;;;;7.79;100.00;99317.25;5089647;28;20279;-73
2022/01/04 02:44:32;;;;;;;4.37;3.97;;;;;;;7.75;100.00;99318.22;5089677;28;20207;-74
2022/01/04 02:47:00;;;;;;;4.30;3.90;;;;;;;7.76;100.00;99323.28;5090022;28;20210;-74
2022/01/04 02:49:27;;;;;;;3.80;3.60;;;;;;;7.74;100.00;99325.03;5090009;28;20203;-74
2022/01/04 02:51:53;;;;;;;4.30;4.00;;;;;;;7.69;100.00;99320.91;5090012;28;20207;-74
2022/01/04 02:54:22;;;;;;;5.00;4.60;;;;;;;7.81;100.00;99331.69;5089694;28;20241;-74
2022/01/04 02:56:49;;;;;;;4.80;4.40;;;;;;;7.81;100.00;99326.59;5089856;28;20277;-74
2022/01/04 02:59:16;;;;;;;4.77;4.47;;;;;;;7.84;100.00;99326.53;5090057;28;20199;-74
2022/01/04 03:01:43;;;;;;;12.20;5.00;;;;;;;7.93;100.00;99325.47;5090062;28;20223;-73
2022/01/04 03:04:10;;;;;;;5.17;4.77;;;;;;;8.04;99.55;99321.00;5089460;28;20901;-74
2022/01/04 03:06:38;;;;;;;4.27;4.07;;;;;;;8.11;99.40;99319.97;5090111;28;20195;-74
2022/01/04 03:09:05;;;;;;;6.10;4.40;;;;;;;8.04;99.12;99303.13;5089545;28;20196;-74
2022/01/04 03:11:35;;;;;;;6.00;5.60;;;;;;;8.14;98.51;99319.91;5087695;28;20195;-73
2022/01/04 03:14:02;;;;;;;5.03;4.73;;;;;;;8.12;98.66;99314.00;5089870;28;20215;-74
2022/01/04 03:16:30;;;;;;;5.47;5.00;;;;;;;8.14;98.12;99319.91;5088534;28;20206;-73
2022/01/04 03:19:07;;;;;;;5.67;5.27;;;;;;;8.13;98.60;99313.16;5089838;28;20199;-74
2022/01/04 03:21:35;;;;;;;5.23;4.77;;;;;;;8.09;98.40;99319.19;5089003;28;20195;-74
2022/01/04 03:24:03;;;;;;;5.27;4.83;;;;;;;7.97;98.59;99311.78;5089366;28;20196;-74
2022/01/04 03:26:30;;;;;;;5.47;4.97;;;;;;;7.98;98.66;99310.09;5089651;28;20200;-74
2022/01/04 03:28:59;;;;;;;5.07;4.73;;;;;;;8.02;98.47;99315.06;5090906;28;20608;-74
2022/01/04 03:31:27;;;;;;;5.07;4.67;;;;;;;7.96;98.72;99311.81;5093239;28;20196;-74
2022/01/04 03:33:54;;;;;;;4.90;4.00;;;;;;;8.00;98.22;99314.28;5094039;28;20222;-74
2022/01/04 03:36:22;;;;;;;4.80;4.50;;;;;;;7.91;98.32;99299.16;5093130;28;20204;-74
2022/01/04 03:38:50;;;;;;;4.70;4.40;;;;;;;7.99;98.13;99319.41;5093281;28;20203;-74
2022/01/04 03:41:17;;;;;;;5.77;5.37;;;;;;;8.00;98.07;99324.50;5093062;28;20226;-74
2022/01/04 03:43:44;;;;;;;5.27;4.97;;;;;;;7.96;98.25;99320.31;5093599;28;20578;-74
2022/01/04 03:46:13;;;;;;;5.43;4.93;;;;;;;7.91;98.50;99327.25;5093172;28;20295;-74
2022/01/04 03:48:40;;;;;;;4.90;4.50;;;;;;;7.87;98.47;99340.94;5093330;28;20580;-74
2022/01/04 03:51:08;;;;;;;5.43;4.93;;;;;;;7.85;98.32;99333.28;5091697;28;20218;-74
2022/01/04 03:53:36;;;;;;;5.73;4.67;;;;;;;7.76;98.71;99332.63;5092105;28;20212;-74
2022/01/04 03:56:04;;;;;;;6.53;5.13;;;;;;;7.62;99.86;99334.63;5091287;28;20711;-74
2022/01/04 03:58:31;;;;;;;5.60;5.10;;;;;;;7.51;99.91;99323.78;5091006;28;20191;-74
2022/01/04 04:00:58;;;;;;;5.87;5.37;;;;;;;7.49;100.00;99333.19;5091116;28;20585;-74
2022/01/04 04:03:26;;;;;;;5.23;4.90;;;;;;;7.47;100.00;99340.84;5090711;28;20237;-74
2022/01/04 04:05:53;;;;;;;5.83;5.30;;;;;;;7.46;100.00;99334.09;5090835;28;20282;-74
2022/01/04 04:08:20;;;;;;;6.77;5.20;;;;;;;7.42;100.00;99347.75;5090968;28;20678;-73
2022/01/04 04:10:48;;;;;;;4.97;4.67;;;;;;;7.42;99.99;99346.91;5090612;28;20199;-73
2022/01/04 04:13:15;;;;;;;5.07;4.77;;;;;;;7.38;100.00;99333.38;5090100;28;20527;-74
2022/01/04 04:15:41;;;;;;;5.10;4.80;;;;;;;7.22;100.00;99326.88;5090889;28;20207;-74
2022/01/04 04:18:09;;;;;;;7.63;4.43;;;;;;;7.26;100.00;99320.84;5089779;28;20195;-74
2022/01/04 04:20:39;;;;;;;6.90;5.10;;;;;;;7.39;100.00;99347.81;5090402;28;20210;-74
2022/01/04 04:23:07;;;;;;;9.77;5.00;;;;;;;7.29;100.00;99325.91;5090924;28;20191;-74
2022/01/04 04:25:34;;;;;;;7.03;5.00;;;;;;;7.35;100.00;99336.81;5091595;28;20204;-74
2022/01/04 04:28:01;;;;;;;8.37;4.73;;;;;;;7.41;100.00;99335.88;5092124;28;20203;-74
2022/01/04 04:30:28;;;;;;;5.00;4.60;;;;;;;7.44;100.00;99337.50;5092314;28;20191;-74
2022/01/04 04:32:55;;;;;;;4.17;3.87;;;;;;;7.45;100.00;99336.66;5092318;28;20215;-74
2022/01/04 04:35:23;;;;;;;4.30;4.10;;;;;;;7.40;100.00;99340.13;5092243;28;20203;-74
2022/01/04 04:37:51;;;;;;;6.53;4.60;;;;;;;7.30;100.00;99328.41;5092562;28;20207;-74
2022/01/04 04:40:18;;;;;;;8.73;3.83;;;;;;;7.42;100.00;99337.56;5091696;28;20203;-74
2022/01/04 04:42:45;;;;;;;8.37;3.70;;;;;;;7.33;100.00;99332.63;5092193;28;20207;-74
2022/01/04 04:45:12;;;;;;;4.77;4.47;;;;;;;7.40;100.00;99347.78;5091927;28;20195;-74
2022/01/04 04:47:39;;;;;;;3.80;3.50;;;;;;;7.32;100.00;99341.97;5092419;28;20199;-74
2022/01/04 04:50:07;;;;;;;4.63;4.33;;;;;;;7.42;100.00;99359.66;5091691;28;20206;-74
2022/01/04 04:52:34;;;;;;;4.60;4.20;;;;;;;7.45;100.00;99362.16;5092114;28;20226;-74
2022/01/04 04:55:03;;;;;;;4.37;3.97;;;;;;;7.49;100.00;99369.72;5091901;28;20202;-74
2022/01/04 04:57:30;;;;;;;4.43;3.97;;;;;;;7.49;100.00;99374.00;5091980;28;20694;-74
2022/01/04 04:59:57;;;;;;;5.53;5.00;;;;;;;7.38;100.00;99372.47;5091589;28;20589;-74
2022/01/04 05:02:24;;;;;;;12.00;9.30;;;;;;;7.30;100.00;99374.28;5091663;28;20714;-74
2022/01/04 05:04:51;;;;;;;21.80;15.17;;;;;;;7.22;100.00;99360.84;5091823;28;20586;-74
2022/01/04 05:07:18;;;;;;;34.67;18.23;;;;;;;7.25;100.00;99365.91;5091243;28;20207;-74
2022/01/04 05:09:45;;;;;;;6.97;6.30;;;;;;;7.21;100.00;99358.31;5091800;28;20210;-74
2022/01/04 05:12:13;;;;;;;4.80;4.37;;;;;;;7.21;99.91;99348.97;5090560;28;20200;-74
2022/01/04 05:14:45;;;;;;;4.87;4.57;;;;;;;7.16;100.00;99335.47;5090968;28;20215;-74
2022/01/04 05:17:12;;;;;;;4.70;4.40;;;;;;;7.18;100.00;99343.94;5090354;28;20657;-74
2022/01/04 05:19:39;;;;;;;5.10;4.60;;;;;;;7.14;99.87;99332.09;5091916;28;20257;-74
2022/01/04 05:22:07;;;;;;;4.87;4.37;;;;;;;7.21;99.71;99343.88;5091024;28;20199;-74
2022/01/04 05:24:35;;;;;;;5.53;5.03;;;;;;;7.12;99.66;99322.78;5091124;28;20582;-74
2022/01/04 05:27:02;;;;;;;4.63;4.20;;;;;;;7.20;99.46;99341.38;5090916;28;20191;-75
2022/01/04 05:29:31;;;;;;;3.70;3.50;;;;;;;7.24;99.24;99356.56;5087868;28;20206;-75
2022/01/04 05:31:57;;;;;;;4.70;4.40;;;;;;;7.25;99.65;99355.69;5077477;28;20196;-74
2022/01/04 05:34:25;;;;;;;4.23;3.97;;;;;;;7.19;98.98;99335.41;5089926;28;20213;-75
2022/01/04 05:36:52;;;;;;;3.70;3.40;;;;;;;7.25;97.58;99360.81;5090744;28;20195;-75
2022/01/04 05:39:20;;;;;;;3.60;3.27;;;;;;;7.24;96.99;99356.56;5090123;28;20675;-74
2022/01/04 05:41:47;;;;;;;8.67;4.40;;;;;;;7.32;96.79;99362.38;5091152;28;20192;-74
2022/01/04 05:44:14;;;;;;;5.13;4.63;;;;;;;7.42;96.39;99359.66;5091229;28;20199;-75
2022/01/04 05:46:43;;;;;;;3.73;3.53;;;;;;;7.44;96.07;99355.38;5092124;28;20191;-75
2022/01/04 05:49:10;;;;;;;5.07;4.53;;;;;;;7.52;95.65;99353.53;5091891;28;20575;-75
2022/01/04 05:51:37;;;;;;;4.10;3.80;;;;;;;7.51;95.33;99337.38;5090556;28;20191;-76
2022/01/04 05:54:04;;;;;;;4.60;4.23;;;;;;;7.55;95.20;99344.09;5090695;28;20211;-76
2022/01/04 05:56:31;;;;;;;3.73;3.43;;;;;;;7.63;95.15;99361.81;5090509;28;20590;-75
2022/01/04 05:58:58;;;;;;;4.13;3.83;;;;;;;7.63;94.59;99356.69;5090332;28;20669;-76
2022/01/04 06:01:25;;;;;;;3.53;3.33;;;;;;;7.62;94.17;99342.28;5088861;28;20211;-75
2022/01/04 06:03:53;;;;;;;4.73;3.97;;;;;;;7.75;93.22;99343.72;5089076;28;20200;-74
2022/01/04 06:06:20;;;;;;;5.97;5.57;;;;;;;7.75;94.53;99351.38;5088408;28;20268;-75
2022/01/04 06:08:48;;;;;;;7.87;7.27;;;;;;;7.74;95.40;99359.91;5088114;28;20199;-75
2022/01/04 06:11:31;;;;;;;9.87;7.60;;;;;;;7.73;96.04;99364.16;5087436;28;20731;-72
2022/01/04 06:16:43;;;;;;;7.23;6.63;;;;;;;7.50;97.59;99360.34;5088819;28;20567;-75
2022/01/04 06:19:11;;;;;;;5.50;5.20;;;;;;;7.52;97.86;99368.84;5090525;28;20199;-76
2022/01/04 06:21:38;;;;;;;4.87;4.47;;;;;;;7.57;98.25;99372.13;5090187;28;20206;-76
2022/01/04 06:24:06;;;;;;;4.67;4.27;;;;;;;7.56;97.64;99375.56;5090039;28;20686;-75
2022/01/04 06:26:33;;;;;;;6.63;6.00;;;;;;;7.56;98.16;99370.47;5089481;28;20195;-73
2022/01/04 06:29:00;;;;;;;6.90;6.17;;;;;;;7.52;99.15;99369.69;5090364;28;20282;-75
2022/01/04 06:31:27;;;;;;;6.90;6.30;;;;;;;7.50;99.15;99360.34;5089373;28;20222;-75
2022/01/04 06:33:54;;;;;;;6.60;5.87;;;;;;;7.42;99.57;99331.59;5090021;28;20276;-75
2022/01/04 06:36:23;;;;;;;6.17;5.50;;;;;;;7.44;99.46;99340.06;5089644;28;20191;-75
2022/01/04 06:38:50;;;;;;;5.30;4.90;;;;;;;7.55;99.66;99348.38;5087921;28;20202;-76
2022/01/04 06:41:17;;;;;;;6.10;5.23;;;;;;;7.62;99.20;99357.59;5089562;28;20207;-74
2022/01/04 06:43:44;;;;;;;6.83;6.20;;;;;;;7.59;99.54;99350.00;5089246;28;20204;-74
2022/01/04 06:46:13;;;;;;;7.17;6.63;;;;;;;7.52;100.00;99343.31;5089587;28;20202;-74
2022/01/04 06:48:40;;;;;;;5.63;5.13;;;;;;;7.65;100.00;99360.09;5088777;28;20282;-66
2022/01/04 06:51:07;;;;;;;6.50;6.00;;;;;;;7.66;100.00;99366.84;5087861;28;20202;-66
2022/01/04 06:53:36;;;;;;;20.50;5.97;;;;;;;7.71;100.00;99365.06;5088764;28;20230;-66
2022/01/04 06:56:03;;;;;;;31.43;8.57;;;;;;;7.70;100.00;99368.47;5088723;28;20213;-66
2022/01/04 06:58:30;;;;;;;10.70;6.23;;;;;;;7.81;100.00;99372.53;5087264;28;20199;-65
2022/01/04 07:00:57;;;;;;;8.17;6.50;;;;;;;7.89;100.00;99385.09;5087899;28;20211;-65
2022/01/04 07:03:24;;;;;;;6.67;5.97;;;;;;;7.87;100.00;99380.06;5088089;28;20610;-75
2022/01/04 07:05:50;;;;;;;8.57;6.67;;;;;;;7.98;100.00;99391.75;5092435;28;20214;-75
2022/01/04 07:08:17;;;;;;;7.47;6.77;;;;;;;8.00;100.00;99384.91;5091191;28;20206;-75
2022/01/04 07:10:46;;;;;;;8.00;6.50;;;;;;;8.00;100.00;99379.81;5089011;28;20225;-75
2022/01/04 07:13:12;;;;;;;7.83;7.23;;;;;;;8.00;100.00;99367.88;5088965;28;20694;-75
2022/01/04 07:15:39;;;;;;;17.20;12.50;;;;;;;8.09;100.00;99375.34;5087750;28;20210;-75
2022/01/04 07:18:06;;;;;;;17.90;12.00;;;;;;;8.12;100.00;99362.53;5090947;28;20199;-75
2022/01/04 07:20:33;;;;;;;16.17;12.20;;;;;;;8.16;100.00;99369.25;5093940;28;20689;-76
2022/01/04 07:23:00;;;;;;;20.03;13.73;;;;;;;8.18;100.00;99362.38;5093791;28;20286;-76
2022/01/04 07:25:28;;;;;;;15.87;11.17;;;;;;;8.25;99.82;99363.94;5093825;28;20195;-77
2022/01/04 07:27:56;;;;;;;19.70;11.60;;;;;;;8.27;100.00;99351.97;5094645;28;20203;-77
2022/01/04 07:30:23;;;;;;;16.17;11.30;;;;;;;8.34;99.96;99351.00;5092113;28;20195;-76
2022/01/04 07:32:50;;;;;;;9.57;8.60;;;;;;;8.28;99.69;99335.81;5094630;28;20609;-75
2022/01/04 07:35:17;;;;;;;7.67;6.87;;;;;;;8.44;98.92;99355.03;5092493;28;20246;-76
2022/01/04 07:37:44;;;;;;;7.07;6.37;;;;;;;8.47;97.80;99345.63;5092453;28;20623;-76
2022/01/04 07:40:11;;;;;;;5.80;5.30;;;;;;;8.47;97.52;99345.63;5091996;28;20203;-76
2022/01/04 07:42:38;;;;;;;7.63;6.60;;;;;;;8.65;98.10;99368.22;5090275;28;20195;-76
2022/01/04 07:45:08;;;;;;;12.30;8.57;;;;;;;8.72;98.41;99364.66;5093097;28;20214;-74
2022/01/04 07:47:35;;;;;;;13.53;8.43;;;;;;;8.68;99.08;99347.69;5091601;28;20221;-76
2022/01/04 07:50:02;;;;;;;12.47;9.00;;;;;;;8.82;100.00;99366.13;5092913;28;20204;-75
2022/01/04 07:52:29;;;;;;;8.67;7.93;;;;;;;8.78;100.00;99362.78;5091846;28;20218;-77
2022/01/04 07:54:56;;;;;;;10.17;9.03;;;;;;;8.84;100.00;99356.69;5082657;28;20215;-76
2022/01/04 07:57:23;;;;;;;14.07;9.87;;;;;;;8.75;100.00;99359.47;5086618;28;20705;-76
2022/01/04 07:59:50;;;;;;;9.40;8.43;;;;;;;8.79;100.00;99355.94;5090728;28;20209;-76
2022/01/04 08:02:18;;;;;;;15.10;9.83;;;;;;;8.73;100.00;99345.84;5090531;28;20571;-76
2022/01/04 08:04:45;;;;;;;9.63;8.67;;;;;;;8.77;100.00;99348.31;5091565;28;20203;-76
2022/01/04 08:07:12;;;;;;;7.60;6.87;;;;;;;8.83;100.00;99349.88;5090421;28;20675;-76
2022/01/04 08:09:39;;;;;;;7.83;7.10;;;;;;;8.98;100.00;99366.59;5091137;28;20207;-76
2022/01/04 08:12:06;;;;;;;7.73;6.80;;;;;;;9.07;100.00;99366.34;5090729;28;20210;-76
2022/01/04 08:14:33;;;;;;;11.97;8.10;;;;;;;9.16;100.00;99371.22;5091396;28;20713;-76
2022/01/04 08:17:00;;;;;;;8.43;7.63;;;;;;;9.22;100.00;99371.06;5091845;28;20596;-76
2022/01/04 08:19:28;;;;;;;8.50;7.63;;;;;;;9.28;100.00;99371.75;5091698;28;20214;-77
2022/01/04 08:21:55;;;;;;;7.40;6.70;;;;;;;9.40;100.00;99380.88;5092031;28;20211;-76
2022/01/04 08:24:22;;;;;;;7.47;6.80;;;;;;;9.46;100.00;99386.66;5092005;28;20675;-77
2022/01/04 08:26:49;;;;;;;7.07;6.57;;;;;;;9.52;100.00;99389.94;5091711;28;20607;-78
2022/01/04 08:29:16;;;;;;;6.67;6.07;;;;;;;9.61;98.95;99397.34;5090599;28;20195;-76
2022/01/04 08:31:43;;;;;;;10.10;7.97;;;;;;;9.61;98.51;99375.16;5091995;28;20195;-77
2022/01/04 08:34:09;;;;;;;9.30;8.23;;;;;;;9.76;98.28;99394.38;5091554;28;20226;-73
2022/01/04 08:36:39;;;;;;;7.73;7.03;;;;;;;9.77;98.33;99373.03;5090840;28;20207;-74
2022/01/04 08:39:08;;;;;;;7.47;6.57;;;;;;;9.87;97.44;99385.53;5090118;28;20203;-74
2022/01/04 08:41:36;;;;;;;9.17;7.53;;;;;;;10.07;97.60;99392.69;5090174;28;20203;-74
2022/01/04 08:44:03;;;;;;;9.67;8.40;;;;;;;10.08;96.53;99390.97;5083443;28;20211;-74
2022/01/04 08:46:32;;;;;;;24.97;8.00;;;;;;;10.17;96.30;99391.56;5083707;28;20614;-75
2022/01/04 08:48:59;;;;;;;9.00;8.20;;;;;;;10.22;95.78;99387.13;5089692;28;20224;-74
2022/01/04 08:51:26;;;;;;;8.37;7.60;;;;;;;10.23;94.86;99376.03;5089798;28;20218;-74
2022/01/04 08:53:54;;;;;;;9.40;8.17;;;;;;;10.35;94.60;99385.06;5089527;28;20207;-74
2022/01/04 08:56:21;;;;;;;10.33;8.70;;;;;;;10.42;94.71;99379.72;5089877;28;20290;-74
2022/01/04 08:58:48;;;;;;;7.87;7.17;;;;;;;10.44;94.38;99370.25;5089016;28;20671;-74
2022/01/04 09:01:15;;;;;;;7.30;6.60;;;;;;;10.53;94.31;99379.41;5090200;28;20202;-74
2022/01/04 09:03:42;;;;;;;8.33;7.43;;;;;;;10.56;95.00;99378.47;5088018;28;20207;-73
2022/01/04 09:06:10;;;;;;;10.47;6.50;;;;;;;10.57;94.74;99364.75;5090858;28;20204;-73
2022/01/04 09:08:37;;;;;;;6.97;6.43;;;;;;;10.67;94.50;99368.69;5091486;28;20209;-72
2022/01/04 09:11:06;;;;;;;6.63;6.03;;;;;;;10.75;94.17;99370.16;5087984;28;20204;-73
2022/01/04 09:13:37;;;;;;;7.43;6.73;;;;;;;10.79;92.75;99360.66;5092157;28;20215;-73
2022/01/04 09:18:50;;;;;;;9.30;7.10;;;;;;;10.92;94.01;99360.19;5091457;28;20260;-74
2022/01/04 09:21:19;;;;;;;8.20;7.40;;;;;;;10.92;94.01;99343.97;5090848;28;20207;-73
2022/01/04 09:23:47;;;;;;;8.33;7.43;;;;;;;11.03;93.38;99359.84;5091011;28;20585;-74
2022/01/04 09:26:18;;;;;;;6.83;6.17;;;;;;;10.95;92.90;99320.81;5090070;28;20196;-74
2022/01/04 09:28:45;;;;;;;8.10;7.40;;;;;;;11.24;92.95;99348.88;5091448;28;20203;-74
2022/01/04 09:31:13;;;;;;;12.67;7.33;;;;;;;11.32;92.24;99343.47;5090787;28;20663;-75
2022/01/04 09:33:40;;;;;;;12.63;10.57;;;;;;;11.37;90.91;99333.91;5090675;28;20217;-74
2022/01/04 09:36:09;;;;;;;34.90;19.07;;;;;;;11.43;90.79;99339.69;5090651;28;20234;-74
2022/01/04 09:38:36;;;;;;;22.43;13.07;;;;;;;11.51;89.06;99327.41;5090975;28;20203;-74
2022/01/04 09:41:03;;;;;;;463.33;224.50;;;;;;;11.58;87.80;99328.88;5090992;28;20290;-74
2022/01/04 09:43:32;;;;;;;24.00;13.37;;;;;;;11.68;87.84;99323.41;5091220;28;20206;-74
2022/01/04 09:46:00;;;;;;;13.20;7.90;;;;;;;11.58;87.24;99282.66;5090851;28;20888;-74
2022/01/04 09:48:27;;;;;;;18.27;12.43;;;;;;;11.77;87.17;99302.53;5090773;28;20253;-74
2022/01/04 09:50:57;;;;;;;9.57;7.37;;;;;;;11.86;87.49;99302.19;5091388;28;20225;-75
2022/01/04 09:53:24;;;;;;;9.60;8.60;;;;;;;11.87;87.05;99291.03;5090322;28;20196;-75
2022/01/04 09:55:54;;;;;;;19.00;12.27;;;;;;;11.88;84.89;99279.88;5089123;28;20217;-75
2022/01/04 09:58:22;;;;;;;104.20;50.23;;;;;;;11.97;84.20;99290.66;5089261;28;20203;-75
2022/01/04 10:00:51;;;;;;;18.77;13.93;;;;;;;12.09;84.75;99286.78;5089859;28;20298;-75
2022/01/04 10:03:25;;;;;;;20.33;14.17;;;;;;;11.88;84.35;99233.66;5089339;28;20706;-75
2022/01/04 10:06:01;;;;;;;26.73;18.20;;;;;;;12.27;85.11;99283.50;5090716;28;20693;-75
2022/01/04 10:08:27;;;;;;;49.00;24.20;;;;;;;12.27;84.33;99273.22;5090026;28;20560;-74
2022/01/04 10:11:01;;;;;;;8.30;7.70;;;;;;;12.41;83.50;99286.38;5090189;28;20587;-75
2022/01/04 10:13:30;;;;;;;9.33;7.67;;;;;;;12.47;81.82;99280.97;5087112;28;20584;-75
2022/01/04 10:15:59;;;;;;;12.30;7.47;;;;;;;12.53;81.22;99280.75;5090040;28;20595;-75
2022/01/04 10:18:28;;;;;;;10.77;9.07;;;;;;;12.44;80.02;99257.97;5089684;28;20207;-75
2022/01/04 10:21:13;;;;;;;12.77;10.73;;;;;;;12.63;80.76;99266.59;5089486;28;20200;-75
2022/01/04 10:24:00;;;;;;;8.87;7.30;;;;;;;12.73;80.15;99261.91;5088546;28;20606;-74
2022/01/04 10:26:35;;;;;;;10.20;7.73;;;;;;;12.79;80.82;99260.84;5083546;28;20199;-75
2022/01/04 10:29:02;;;;;;;14.83;11.87;;;;;;;12.81;79.60;99243.59;5088504;28;20690;-75
2022/01/04 10:31:38;;;;;;;9.00;8.03;;;;;;;12.91;80.86;99234.63;5090430;28;20579;-75
2022/01/04 10:34:05;;;;;;;8.40;7.63;;;;;;;12.91;81.21;99221.75;5089496;28;20198;-76
2022/01/04 10:36:39;;;;;;;9.83;7.63;;;;;;;12.99;83.01;99215.38;5089621;28;20595;-74
2022/01/04 10:39:08;;;;;;;15.60;8.57;;;;;;;12.95;81.57;99205.28;5087301;28;20199;-75
2022/01/04 10:41:35;;;;;;;13.13;7.37;;;;;;;13.00;81.54;99200.75;5089664;28;20218;-74
2022/01/04 10:44:07;;;;;;;12.57;9.00;;;;;;;13.18;81.14;99209.47;5088599;28;20556;-75
2022/01/04 10:46:39;;;;;;;8.80;8.00;;;;;;;13.20;80.66;99203.34;5086577;28;20256;-74
2022/01/04 10:49:15;;;;;;;7.70;7.07;;;;;;;13.27;81.07;99209.91;5086953;28;20199;-75
2022/01/04 10:51:43;;;;;;;8.97;8.07;;;;;;;13.27;80.63;99197.03;5087563;28;20238;-77
2022/01/04 10:54:09;;;;;;;8.60;7.43;;;;;;;13.27;79.53;99186.75;5088497;28;20214;-75
2022/01/04 10:56:39;;;;;;;7.97;7.27;;;;;;;13.33;79.55;99191.59;5085718;28;20226;-75
2022/01/04 10:59:09;;;;;;;11.17;7.40;;;;;;;13.36;79.96;99191.47;5089633;28;20201;-76
2022/01/04 11:01:42;;;;;;;7.83;7.23;;;;;;;13.48;78.40;99193.50;5083698;28;20229;-76
2022/01/04 11:04:13;;;;;;;7.87;7.13;;;;;;;13.42;77.37;99180.88;5082436;28;20196;-75
2022/01/04 11:06:40;;;;;;;12.57;8.23;;;;;;;13.58;77.51;99187.00;5088525;28;20210;-75
2022/01/04 11:09:08;;;;;;;10.77;8.20;;;;;;;13.60;75.54;99189.53;5088275;28;20313;-75
2022/01/04 11:11:35;;;;;;;8.33;6.00;;;;;;;13.63;74.96;99174.75;5089669;28;20195;-76
2022/01/04 11:14:03;;;;;;;7.67;6.97;;;;;;;13.71;74.48;99191.59;5087986;28;20206;-75
2022/01/04 11:16:31;;;;;;;8.50;7.77;;;;;;;13.73;76.11;99187.22;5089248;28;20226;-74
2022/01/04 11:19:01;;;;;;;7.20;6.40;;;;;;;13.70;75.03;99164.19;5089430;28;20200;-75
2022/01/04 11:21:31;;;;;;;8.50;7.60;;;;;;;13.83;73.64;99175.59;5088187;28;20202;-73
2022/01/04 11:23:58;;;;;;;6.60;6.10;;;;;;;13.92;74.04;99181.16;5089233;28;20210;-74
2022/01/04 11:26:26;;;;;;;19.27;10.50;;;;;;;13.95;74.38;99175.00;5089508;28;20192;-75
2022/01/04 11:28:54;;;;;;;8.17;7.47;;;;;;;13.98;74.76;99170.53;5089121;28;20192;-75
2022/01/04 11:31:39;;;;;;;8.53;7.73;;;;;;;14.07;75.54;99164.09;5088939;28;20199;-75
2022/01/04 11:34:19;;;;;;;13.93;10.23;;;;;;;14.13;73.10;99168.97;5088869;28;20211;-75
2022/01/04 11:36:50;;;;;;;6.50;6.10;;;;;;;14.16;73.32;99155.94;5088132;28;20587;-66
2022/01/04 11:39:31;;;;;;;5.77;5.37;;;;;;;14.28;73.75;99157.91;5089246;28;20199;-66
2022/01/04 11:41:59;;;;;;;6.83;5.30;;;;;;;14.31;71.96;99155.19;5089259;28;20667;-74
2022/01/04 11:44:28;;;;;;;7.53;5.97;;;;;;;14.20;70.31;99139.41;5089183;28;20203;-74
2022/01/04 11:47:18;;;;;;;4.50;4.20;;;;;;;14.32;69.97;99143.97;5089074;28;20215;-74